Terminal Aerodrome Forecast
Issued by NWS

Home | Current Version | Previous Version | Text Only | Print | Product List | Glossary On
Versions: 1 2 3 4 5 6 7 8 9 10 11 12 13 14 15 16 17 18 19 20 21 22 23 24 25 26 27 28 29 30 31 32 33 34
023
FTAK31 PANC 240526
TAFADQ
TAF
PADQ 240526Z 2406/2506 VRB04KT P6SM VCSH OVC025
     FM240800 13008KT 6SM -RA SCT015 BKN020 OVC030
     FM241500 11005KT P6SM VCSH SCT015 OVC030
     FM250200 28006KT P6SM OVC015=

USA.gov is the U.S. government's official web portal to all federal, state and local government web resources and services.